KSFB

Orlando Sanford International Airport

Orlando, Florida, USA
KSFB 202340Z 2100/2124 15008KT P6SM VCTS SCT035CB SCT120 BKN250 FM210200 VRB03KT P6SM FEW120 BKN250 FM211500 18005KT P6SM SCT035 SCT250 FM212000 15007KT P6SM VCTS SCT040CB BKN250
Issued Valid From Valid To
Aug-20 @ 23:40 UTC
(18 hours ago)
Aug-21 @ 00:00 UTC
(18 hours ago)
Aug-22 @ 00:00 UTC
(in 6 hours)
Expired Click to View Aug-21 @ 00:00 to Aug-21 @ 02:00
KSFB 202340Z 2100/2124 15008KT P6SM VCTS SCT035CB SCT120 BKN250
Wind Visibility Clouds Conditions
150° at 8 knots Greater than 6 miles
  • Scattered at 3,500' AGL
  • Scattered at 12,000' AGL
  • Broken at 25,000' AGL
  • Area Thunderstorm
Expired Click to View Aug-21 @ 02:00 to Aug-21 @ 15:00
FM210200 VRB03KT P6SM FEW120 BKN250
Wind Visibility Clouds
Variable at 3 knots Greater than 6 miles
  • Few at 12,000' AGL
  • Broken at 25,000' AGL
From Aug-21 @ 15:00 to Aug-21 @ 20:00
FM211500 18005KT P6SM SCT035 SCT250
Wind Visibility Clouds
180° at 5 knots Greater than 6 miles
  • Scattered at 3,500' AGL
  • Scattered at 25,000' AGL
From Aug-21 @ 20:00 to Aug-22 @ 00:00
FM212000 15007KT P6SM VCTS SCT040CB BKN250
Wind Visibility Clouds Conditions
150° at 7 knots Greater than 6 miles
  • Scattered at 4,000' AGL
  • Broken at 25,000' AGL
  • Area Thunderstorm
KSFB 202340Z 2100/2124 15008KT P6SM VCTS SCT035CB SCT120 BKN250 FM210200 VRB03KT P6SM FEW120 BKN250 FM211500 18005KT P6SM SCT035 SCT250 FM212000 15007KT P6SM VCTS SCT040CB BKN250
Issued Aug-20 @ 23:40 UTC
(18 hours ago)
Valid From Aug-21 @ 00:00 UTC
(18 hours ago)
Valid To Aug-22 @ 00:00 UTC
(in 6 hours)
Aug-21 @ 00:00 - Aug-21 @ 02:00
Wind Visibility
150° at 8 knots Greater than 6 miles
Clouds
  • Scattered at 3,500' AGL
  • Scattered at 12,000' AGL
  • Broken at 25,000' AGL
Conditions
  • Area Thunderstorm
Aug-21 @ 02:00 - Aug-21 @ 15:00
Wind Visibility
Variable at 3 knots Greater than 6 miles
Clouds
  • Few at 12,000' AGL
  • Broken at 25,000' AGL
From Aug-21 @ 15:00 - Aug-21 @ 20:00
Wind Visibility
180° at 5 knots Greater than 6 miles
Clouds
  • Scattered at 3,500' AGL
  • Scattered at 25,000' AGL
From Aug-21 @ 20:00 - Aug-22 @ 00:00
Wind Visibility
150° at 7 knots Greater than 6 miles
Clouds
  • Scattered at 4,000' AGL
  • Broken at 25,000' AGL
Conditions
  • Area Thunderstorm